Time;durP1;ratioP1;P1;durP2;ratioP2;P2;SDS_P1;SDS_P2;PMS_P1;PMS_P2;Temp;Humidity;BMP_temperature;BMP_pressure;BME280_temperature;BME280_humidity;BME280_pressure;Samples;Min_cycle;Max_cycle;Signal;HPM_P1;HPM_P2
2020/12/01 00:00:48;;;;;;;34.23;12.77;;;0.80;99.90;;;;;;4181147;28;20980;-59
2020/12/01 00:02:50;;;;;;;31.10;13.87;;;0.70;99.90;;;;;;4181913;28;20489;-59
2020/12/01 00:04:51;;;;;;;27.50;12.37;;;0.70;99.90;;;;;;4180967;28;20999;-59
2020/12/01 00:06:53;;;;;;;25.10;10.60;;;0.70;99.90;;;;;;4181384;28;20478;-59
2020/12/01 00:08:54;;;;;;;27.67;11.70;;;0.70;99.90;;;;;;4180868;28;20564;-59
2020/12/01 00:11:03;;;;;;;28.33;11.10;;;0.70;99.90;;;;;;4181547;28;20479;-60
2020/12/01 00:13:06;;;;;;;26.40;11.20;;;0.80;99.90;;;;;;4180565;28;20464;-59
2020/12/01 00:15:08;;;;;;;26.23;11.13;;;0.80;99.90;;;;;;4181349;28;20483;-60
2020/12/01 00:17:10;;;;;;;23.30;11.17;;;0.80;99.90;;;;;;4180710;28;20969;-60
2020/12/01 00:19:11;;;;;;;24.67;10.53;;;0.80;99.90;;;;;;4180569;28;20461;-60
2020/12/01 00:21:15;;;;;;;23.03;10.10;;;0.80;99.90;;;;;;4180501;28;20478;-60
2020/12/01 00:23:16;;;;;;;20.73;10.37;;;0.80;99.90;;;;;;4180612;28;20495;-60
2020/12/01 00:25:18;;;;;;;21.30;9.20;;;0.80;99.90;;;;;;4179733;28;20463;-60
2020/12/01 00:27:19;;;;;;;20.43;9.83;;;0.80;99.90;;;;;;4180102;28;20479;-60
2020/12/01 00:29:22;;;;;;;18.10;8.67;;;0.90;99.90;;;;;;4182231;28;20460;-60
2020/12/01 00:31:23;;;;;;;21.57;8.90;;;0.90;99.90;;;;;;4181246;28;20466;-60
2020/12/01 00:33:25;;;;;;;21.03;9.90;;;0.90;99.90;;;;;;4181786;28;20492;-60
2020/12/01 00:35:29;;;;;;;20.60;9.30;;;0.90;99.90;;;;;;4182061;28;20790;-60
2020/12/01 00:37:30;;;;;;;18.50;8.30;;;0.80;99.90;;;;;;4181631;28;20472;-60
2020/12/01 00:39:32;;;;;;;20.73;9.77;;;0.90;99.90;;;;;;4180943;28;20941;-60
2020/12/01 00:41:33;;;;;;;19.07;9.37;;;0.90;99.90;;;;;;4180418;28;20551;-60
2020/12/01 00:43:35;;;;;;;19.10;8.60;;;0.90;99.90;;;;;;4181033;28;20499;-60
2020/12/01 00:45:37;;;;;;;18.77;8.87;;;0.90;99.90;;;;;;4181858;28;20463;-60
2020/12/01 00:47:38;;;;;;;16.27;8.33;;;0.90;99.90;;;;;;4180796;28;20460;-60
2020/12/01 00:49:40;;;;;;;15.90;7.80;;;0.90;99.90;;;;;;4180043;28;20480;-60
2020/12/01 00:51:41;;;;;;;17.30;7.97;;;0.90;99.90;;;;;;4180244;28;20475;-60
2020/12/01 00:53:42;;;;;;;14.47;7.37;;;0.90;99.90;;;;;;4180081;28;20824;-61
2020/12/01 00:55:44;;;;;;;17.07;8.07;;;0.90;99.90;;;;;;4181279;28;20937;-61
2020/12/01 00:57:45;;;;;;;12.07;6.73;;;0.90;99.90;;;;;;4180856;28;20476;-61
2020/12/01 00:59:47;;;;;;;13.17;6.47;;;0.90;99.90;;;;;;4180516;28;20469;-60
2020/12/01 01:01:49;;;;;;;14.10;6.47;;;0.90;99.90;;;;;;4180573;28;20468;-61
2020/12/01 01:03:50;;;;;;;12.90;6.73;;;0.90;99.90;;;;;;4180643;28;20536;-61
2020/12/01 01:05:51;;;;;;;12.10;6.17;;;0.90;99.90;;;;;;4180327;28;20951;-60
2020/12/01 01:07:53;;;;;;;11.30;5.93;;;0.90;99.90;;;;;;4180215;28;20519;-61
2020/12/01 01:09:54;;;;;;;12.47;6.00;;;1.00;99.90;;;;;;4180890;28;20465;-61
2020/12/01 01:11:56;;;;;;;16.23;6.97;;;0.90;99.90;;;;;;4179904;28;20472;-60
2020/12/01 01:13:57;;;;;;;12.57;6.30;;;0.90;99.90;;;;;;4180598;28;20487;-61
2020/12/01 01:16:00;;;;;;;12.73;6.33;;;0.90;99.90;;;;;;4180133;28;20488;-61
2020/12/01 01:18:03;;;;;;;13.37;6.30;;;1.00;99.90;;;;;;4179601;28;20468;-62
2020/12/01 01:20:07;;;;;;;11.13;5.40;;;1.00;99.90;;;;;;4180723;28;20467;-62
2020/12/01 01:22:08;;;;;;;14.17;6.27;;;1.00;99.90;;;;;;4181060;28;21084;-62
2020/12/01 01:24:10;;;;;;;11.13;5.80;;;1.00;99.90;;;;;;4180343;28;20473;-61
2020/12/01 01:26:12;;;;;;;11.40;5.70;;;1.00;99.90;;;;;;4179525;28;20473;-61
2020/12/01 01:28:14;;;;;;;11.17;5.53;;;1.00;99.90;;;;;;4179493;28;20467;-61
2020/12/01 01:30:17;;;;;;;12.57;5.67;;;1.00;99.90;;;;;;4180761;28;20485;-62
2020/12/01 01:32:19;;;;;;;9.60;5.50;;;1.00;99.90;;;;;;4178816;28;20488;-62
2020/12/01 01:34:21;;;;;;;9.97;5.43;;;1.00;99.90;;;;;;4180198;28;20514;-62
2020/12/01 01:36:22;;;;;;;11.47;6.03;;;1.00;99.90;;;;;;4179453;28;20498;-62
2020/12/01 01:38:24;;;;;;;10.13;5.03;;;1.00;99.90;;;;;;4180427;28;20475;-62
2020/12/01 01:40:28;;;;;;;11.03;5.80;;;1.00;99.90;;;;;;4181201;28;20972;-62
2020/12/01 01:42:29;;;;;;;11.53;5.93;;;1.00;99.90;;;;;;4181505;28;20489;-62
2020/12/01 01:44:31;;;;;;;12.50;6.07;;;1.00;99.90;;;;;;4182920;28;20475;-62
2020/12/01 01:46:39;;;;;;;11.87;6.33;;;1.00;99.90;;;;;;4181244;28;20487;-62
2020/12/01 01:48:40;;;;;;;12.40;6.00;;;1.00;99.90;;;;;;4181075;28;20478;-62
2020/12/01 01:50:46;;;;;;;12.37;6.47;;;1.00;99.90;;;;;;4181735;28;20482;-62
2020/12/01 01:52:50;;;;;;;12.47;6.30;;;1.00;99.90;;;;;;4181891;28;20465;-62
2020/12/01 01:54:58;;;;;;;13.83;6.47;;;1.00;99.90;;;;;;4181861;28;20471;-62
2020/12/01 01:57:02;;;;;;;12.87;6.37;;;1.10;99.90;;;;;;4182049;28;20468;-62
2020/12/01 01:59:05;;;;;;;11.13;5.90;;;1.10;99.90;;;;;;4181270;28;20999;-62
2020/12/01 02:01:10;;;;;;;11.23;6.17;;;1.10;99.90;;;;;;4181546;28;21083;-62
2020/12/01 02:03:12;;;;;;;10.67;5.60;;;1.10;99.90;;;;;;4181073;28;20491;-62
2020/12/01 02:05:13;;;;;;;9.53;5.47;;;1.10;99.90;;;;;;4182771;28;20795;-62
2020/12/01 02:07:17;;;;;;;10.03;5.77;;;1.10;99.90;;;;;;4180159;28;20472;-62
2020/12/01 02:09:24;;;;;;;10.47;5.70;;;1.10;99.90;;;;;;4181885;28;20473;-62
2020/12/01 02:11:28;;;;;;;15.17;6.33;;;1.10;99.90;;;;;;4180392;28;20549;-62
2020/12/01 02:13:38;;;;;;;12.43;6.10;;;1.10;99.90;;;;;;4179525;28;20476;-62
2020/12/01 02:15:39;;;;;;;13.17;5.80;;;1.10;99.90;;;;;;4179638;28;20475;-61
2020/12/01 02:17:44;;;;;;;10.97;5.63;;;1.10;99.90;;;;;;4178845;28;20563;-62
2020/12/01 02:19:46;;;;;;;10.63;5.53;;;1.10;99.90;;;;;;4178921;28;20471;-61
2020/12/01 02:21:48;;;;;;;11.40;5.83;;;1.10;99.90;;;;;;4180440;28;20515;-62
2020/12/01 02:23:50;;;;;;;11.90;6.10;;;1.10;99.90;;;;;;4179437;28;20980;-62
2020/12/01 02:25:52;;;;;;;11.37;5.77;;;1.20;99.90;;;;;;4179158;28;20469;-62
2020/12/01 02:28:00;;;;;;;11.67;6.03;;;1.30;99.90;;;;;;4179640;28;20534;-62
2020/12/01 02:30:01;;;;;;;10.40;5.37;;;1.10;99.90;;;;;;4179220;28;20519;-62
2020/12/01 02:32:04;;;;;;;9.23;5.43;;;1.10;99.90;;;;;;4179523;28;20469;-62
2020/12/01 02:34:05;;;;;;;11.73;5.47;;;1.20;99.90;;;;;;4179644;28;20505;-61
2020/12/01 02:36:07;;;;;;;11.17;5.67;;;1.20;99.90;;;;;;4179298;28;20462;-62
2020/12/01 02:38:08;;;;;;;11.47;5.80;;;1.20;99.90;;;;;;4181268;28;20479;-63
2020/12/01 02:40:11;;;;;;;10.10;5.50;;;1.20;99.90;;;;;;4180043;28;21175;-62
2020/12/01 02:42:16;;;;;;;11.83;6.47;;;1.20;99.90;;;;;;4180110;28;21137;-62
2020/12/01 02:44:18;;;;;;;12.90;6.50;;;1.20;99.90;;;;;;4179879;28;20937;-62
2020/12/01 02:46:19;;;;;;;12.97;6.63;;;1.20;99.90;;;;;;4180738;28;20472;-62
2020/12/01 02:48:21;;;;;;;12.87;6.40;;;1.20;99.90;;;;;;4180776;28;20991;-62
2020/12/01 02:50:22;;;;;;;15.87;6.93;;;1.20;99.90;;;;;;4180721;28;20790;-61
2020/12/01 02:52:24;;;;;;;16.63;7.50;;;1.20;99.90;;;;;;4181059;28;20993;-61
2020/12/01 02:54:25;;;;;;;13.60;6.40;;;1.20;99.90;;;;;;4180340;28;20466;-61
2020/12/01 02:56:26;;;;;;;14.50;6.50;;;1.20;99.90;;;;;;4179199;28;20497;-61
2020/12/01 02:58:28;;;;;;;12.77;6.07;;;1.20;99.90;;;;;;4180176;28;20501;-61
2020/12/01 03:00:30;;;;;;;13.13;6.60;;;1.20;99.90;;;;;;4180494;28;20476;-61
2020/12/01 03:02:31;;;;;;;15.30;7.17;;;1.20;99.90;;;;;;4179701;28;20546;-62
2020/12/01 03:04:33;;;;;;;14.83;6.57;;;1.20;99.90;;;;;;4180035;28;20488;-62
2020/12/01 03:06:34;;;;;;;11.73;6.20;;;1.20;99.90;;;;;;4180914;28;20476;-62
2020/12/01 03:08:36;;;;;;;13.97;6.57;;;1.20;99.90;;;;;;4181063;28;20473;-62
2020/12/01 03:10:37;;;;;;;15.90;6.73;;;1.20;99.90;;;;;;4181017;28;20475;-62
2020/12/01 03:12:39;;;;;;;13.77;6.30;;;1.20;99.90;;;;;;4181013;28;20472;-61
2020/12/01 03:14:40;;;;;;;18.00;7.07;;;1.20;99.90;;;;;;4179040;28;20464;-61
2020/12/01 03:16:42;;;;;;;12.90;6.73;;;1.20;99.90;;;;;;4178989;28;21086;-62
2020/12/01 03:18:45;;;;;;;14.97;6.67;;;1.20;99.90;;;;;;4179406;28;20463;-62
2020/12/01 03:20:47;;;;;;;16.47;7.83;;;1.20;99.90;;;;;;4179205;28;22297;-62
2020/12/01 03:22:48;;;;;;;17.33;7.40;;;1.20;99.90;;;;;;4180313;28;20503;-61
2020/12/01 03:24:49;;;;;;;16.47;7.60;;;1.20;99.90;;;;;;4181846;28;20970;-61
2020/12/01 03:26:51;;;;;;;16.20;7.70;;;1.20;99.90;;;;;;4181923;28;20472;-62
2020/12/01 03:28:52;;;;;;;19.17;8.20;;;1.20;99.90;;;;;;4181521;28;20863;-61
2020/12/01 03:30:54;;;;;;;14.97;7.00;;;1.20;99.90;;;;;;4182281;28;20483;-61
2020/12/01 03:32:56;;;;;;;16.13;7.53;;;1.20;99.90;;;;;;4180918;28;20490;-62
2020/12/01 03:34:57;;;;;;;18.57;7.80;;;1.20;99.90;;;;;;4181203;28;20486;-61
2020/12/01 03:36:59;;;;;;;18.40;7.57;;;1.20;99.90;;;;;;4181830;28;20590;-61
2020/12/01 03:39:00;;;;;;;15.03;7.67;;;1.20;99.90;;;;;;4181319;28;20478;-61
2020/12/01 03:41:02;;;;;;;16.47;7.80;;;1.20;99.90;;;;;;4180583;28;20473;-61
2020/12/01 03:43:03;;;;;;;15.90;7.60;;;1.20;99.90;;;;;;4181522;28;20493;-61
2020/12/01 03:45:05;;;;;;;18.03;7.83;;;1.20;99.90;;;;;;4181511;28;20485;-61
2020/12/01 03:47:06;;;;;;;14.93;7.23;;;1.20;99.90;;;;;;4180836;28;20491;-61
2020/12/01 03:49:08;;;;;;;18.40;8.33;;;1.20;99.90;;;;;;4181378;28;20496;-61
2020/12/01 03:51:10;;;;;;;15.23;7.83;;;1.30;99.90;;;;;;4180606;28;20961;-61
2020/12/01 03:53:11;;;;;;;17.40;8.03;;;1.30;99.90;;;;;;4180957;28;20527;-61
2020/12/01 03:55:13;;;;;;;19.77;8.70;;;1.30;99.90;;;;;;4180857;28;20837;-61
2020/12/01 03:57:14;;;;;;;18.07;8.17;;;1.30;99.90;;;;;;4181200;28;20494;-61
2020/12/01 03:59:15;;;;;;;19.73;8.40;;;1.30;99.90;;;;;;4181807;28;20943;-61
2020/12/01 04:01:17;;;;;;;16.93;8.00;;;1.30;99.90;;;;;;4181346;28;20476;-61
2020/12/01 04:03:18;;;;;;;19.30;7.80;;;1.30;99.90;;;;;;4181058;28;20488;-61
2020/12/01 04:05:23;;;;;;;20.43;8.70;;;1.30;99.90;;;;;;4181208;28;20480;-62
2020/12/01 04:07:24;;;;;;;16.57;8.07;;;1.30;99.90;;;;;;4181020;28;20482;-61
2020/12/01 04:09:26;;;;;;;21.63;9.20;;;1.30;99.90;;;;;;4182042;28;20841;-61
2020/12/01 04:11:27;;;;;;;20.70;9.67;;;1.30;99.90;;;;;;4180785;28;20467;-61
2020/12/01 04:13:29;;;;;;;22.33;10.17;;;1.30;99.90;;;;;;4180868;28;21043;-61
2020/12/01 04:15:30;;;;;;;21.60;8.67;;;1.40;99.90;;;;;;4180682;28;20542;-61
2020/12/01 04:17:31;;;;;;;19.30;9.27;;;1.30;99.90;;;;;;4181123;28;20477;-61
2020/12/01 04:19:33;;;;;;;21.23;9.17;;;1.40;99.90;;;;;;4180759;28;20478;-61
2020/12/01 04:21:35;;;;;;;20.97;8.97;;;1.40;99.90;;;;;;4181250;28;21148;-61
2020/12/01 04:23:36;;;;;;;22.17;9.43;;;1.30;99.90;;;;;;4180944;28;20484;-61
2020/12/01 04:25:38;;;;;;;19.93;8.77;;;1.30;99.90;;;;;;4181733;28;20478;-61
2020/12/01 04:27:39;;;;;;;18.63;9.20;;;1.30;99.90;;;;;;4180317;28;20492;-61
2020/12/01 04:29:41;;;;;;;20.70;8.93;;;1.30;99.90;;;;;;4181698;28;20565;-63
2020/12/01 04:31:43;;;;;;;20.60;9.73;;;1.40;99.90;;;;;;4182062;28;20463;-61
2020/12/01 04:33:44;;;;;;;20.93;8.87;;;1.40;99.90;;;;;;4180193;28;20788;-61
2020/12/01 04:35:46;;;;;;;18.57;8.37;;;1.40;99.90;;;;;;4181024;28;20893;-61
2020/12/01 04:37:48;;;;;;;20.97;9.43;;;1.40;99.90;;;;;;4180020;28;20468;-61
2020/12/01 04:39:49;;;;;;;18.30;8.07;;;1.40;99.90;;;;;;4180190;28;20472;-61
2020/12/01 04:41:51;;;;;;;17.13;7.83;;;1.40;99.90;;;;;;4181016;28;20457;-61
2020/12/01 04:43:58;;;;;;;21.13;9.07;;;1.40;99.90;;;;;;4180368;28;20491;-61
2020/12/01 04:46:00;;;;;;;16.77;7.67;;;1.40;99.90;;;;;;4180017;28;20529;-61
2020/12/01 04:48:08;;;;;;;19.47;8.90;;;1.40;99.90;;;;;;4181166;28;20889;-61
2020/12/01 04:50:14;;;;;;;20.87;9.07;;;1.40;99.90;;;;;;4180548;28;20468;-61
2020/12/01 04:52:34;;;;;;;22.73;9.70;;;1.40;99.90;;;;;;4180817;28;20464;-61
2020/12/01 04:55:10;;;;;;;20.20;8.30;;;1.40;99.90;;;;;;4180297;28;20478;-60
2020/12/01 04:57:37;;;;;;;20.87;8.67;;;1.40;99.90;;;;;;4177349;28;20969;-61
2020/12/01 04:59:59;;;;;;;20.20;9.00;;;1.40;99.90;;;;;;4179794;28;20471;-60
2020/12/01 05:02:30;;;;;;;21.70;8.67;;;1.40;99.90;;;;;;4179466;28;20558;-62
2020/12/01 05:04:36;;;;;;;20.83;8.87;;;1.40;99.90;;;;;;4173319;28;20465;-60
2020/12/01 05:06:56;;;;;;;25.13;10.10;;;1.40;99.90;;;;;;4179646;28;20551;-61
2020/12/01 05:09:02;;;;;;;25.30;9.93;;;1.40;99.90;;;;;;4179931;28;20457;-60
2020/12/01 05:11:14;;;;;;;20.87;8.60;;;1.40;99.90;;;;;;4179927;28;20469;-60
2020/12/01 05:13:21;;;;;;;23.27;9.57;;;1.40;99.90;;;;;;4179601;28;21189;-59
2020/12/01 05:15:25;;;;;;;21.43;8.77;;;1.40;99.90;;;;;;4179416;28;20461;-60
2020/12/01 05:17:53;;;;;;;22.03;8.83;;;1.50;99.90;;;;;;4179929;28;20476;-59
2020/12/01 05:19:54;;;;;;;22.60;9.30;;;1.50;99.90;;;;;;4179442;28;20481;-59
2020/12/01 05:21:55;;;;;;;24.67;10.23;;;1.50;99.90;;;;;;4180043;28;20465;-59
2020/12/01 05:23:57;;;;;;;23.80;9.83;;;1.50;99.90;;;;;;4179928;28;20501;-60
2020/12/01 05:26:00;;;;;;;21.40;10.10;;;1.50;99.90;;;;;;4180585;28;20943;-60
2020/12/01 05:28:08;;;;;;;23.37;9.70;;;1.50;99.90;;;;;;4178901;28;20511;-59
2020/12/01 05:30:13;;;;;;;23.40;10.10;;;1.50;99.90;;;;;;4179389;28;20472;-61
2020/12/01 05:32:24;;;;;;;23.67;10.17;;;1.50;99.90;;;;;;4179093;28;20478;-60
2020/12/01 05:34:26;;;;;;;21.47;9.47;;;1.50;99.90;;;;;;4180893;28;20505;-56
2020/12/01 05:36:31;;;;;;;23.40;10.17;;;1.50;99.90;;;;;;4180861;28;20532;-59
2020/12/01 05:38:34;;;;;;;22.30;9.40;;;1.50;99.90;;;;;;4181963;28;20497;-56
2020/12/01 05:40:35;;;;;;;22.10;9.47;;;1.50;99.90;;;;;;4182779;28;20950;-56
2020/12/01 05:42:42;;;;;;;23.93;9.93;;;1.50;99.90;;;;;;4181405;28;20482;-55
2020/12/01 05:44:56;;;;;;;21.17;9.20;;;1.50;99.90;;;;;;4181931;28;20964;-56
2020/12/01 05:47:06;;;;;;;21.27;8.90;;;1.50;99.90;;;;;;4179811;28;20541;-55
2020/12/01 05:49:26;;;;;;;23.03;9.77;;;1.50;99.90;;;;;;4180937;28;20459;-55
2020/12/01 05:51:35;;;;;;;25.00;10.27;;;1.50;99.90;;;;;;4181042;28;20783;-55
2020/12/01 05:53:36;;;;;;;25.00;10.53;;;1.50;99.90;;;;;;4182100;28;22393;-55
2020/12/01 05:55:37;;;;;;;27.43;9.70;;;1.50;99.90;;;;;;4180261;28;20470;-55
2020/12/01 05:57:40;;;;;;;22.97;10.03;;;1.50;99.90;;;;;;4180786;28;20483;-55
2020/12/01 05:59:53;;;;;;;22.57;9.80;;;1.50;99.90;;;;;;4180773;28;20475;-55
2020/12/01 06:02:01;;;;;;;24.90;10.17;;;1.50;99.90;;;;;;4183503;28;20472;-55
2020/12/01 06:04:06;;;;;;;24.30;10.47;;;1.50;99.90;;;;;;4181500;28;21172;-55
2020/12/01 06:06:11;;;;;;;23.77;10.33;;;1.50;99.90;;;;;;4181154;28;20470;-55
2020/12/01 06:08:33;;;;;;;26.70;11.03;;;1.50;99.90;;;;;;4181329;28;20663;-55
2020/12/01 06:10:38;;;;;;;25.90;10.10;;;1.50;99.90;;;;;;4182697;28;20461;-55
2020/12/01 06:13:05;;;;;;;27.30;10.50;;;1.50;99.90;;;;;;4181453;28;21116;-55
2020/12/01 06:15:13;;;;;;;25.20;10.37;;;1.50;99.90;;;;;;4181048;28;20466;-55
2020/12/01 06:17:20;;;;;;;23.53;10.60;;;1.50;99.90;;;;;;4180177;28;20476;-55
2020/12/01 06:19:26;;;;;;;25.37;10.50;;;1.50;99.90;;;;;;4180500;28;21922;-55
2020/12/01 06:21:57;;;;;;;24.17;10.40;;;1.50;99.90;;;;;;4181340;28;21259;-55
2020/12/01 06:24:21;;;;;;;24.03;9.93;;;1.50;99.90;;;;;;4180476;28;20503;-55
2020/12/01 06:26:59;;;;;;;22.83;10.10;;;1.60;99.90;;;;;;4181212;28;20492;-55
2020/12/01 06:29:29;;;;;;;24.83;10.33;;;1.60;99.90;;;;;;4180851;28;20475;-55
2020/12/01 06:31:54;;;;;;;24.13;10.73;;;1.60;99.90;;;;;;4181047;28;20465;-54
2020/12/01 06:34:22;;;;;;;26.50;10.90;;;1.60;99.90;;;;;;4179029;28;20489;-55
2020/12/01 06:37:12;;;;;;;24.17;10.03;;;1.60;99.90;;;;;;4181814;28;20474;-55
2020/12/01 06:39:27;;;;;;;24.80;9.67;;;1.60;99.90;;;;;;4181443;28;20461;-55
2020/12/01 06:41:36;;;;;;;25.33;10.50;;;1.60;99.90;;;;;;4180671;28;20466;-55
2020/12/01 06:43:46;;;;;;;25.47;9.90;;;1.60;99.90;;;;;;4180912;28;20475;-55
2020/12/01 06:45:53;;;;;;;24.93;9.37;;;1.60;99.90;;;;;;4179860;28;20470;-55
2020/12/01 06:48:04;;;;;;;24.97;10.20;;;1.60;99.90;;;;;;4179665;28;20477;-55
2020/12/01 06:50:14;;;;;;;23.07;10.10;;;1.60;99.90;;;;;;4180242;28;20466;-55
2020/12/01 06:52:15;;;;;;;24.43;10.37;;;1.60;99.90;;;;;;4180297;28;20481;-55
2020/12/01 06:54:19;;;;;;;26.27;10.67;;;1.60;99.90;;;;;;4180290;28;22259;-55
2020/12/01 06:56:20;;;;;;;22.07;10.43;;;1.60;99.90;;;;;;4181119;28;20541;-55
2020/12/01 06:58:34;;;;;;;25.23;10.20;;;1.60;99.90;;;;;;4184448;28;20487;-55
2020/12/01 07:00:35;;;;;;;24.63;9.93;;;1.60;99.90;;;;;;4184132;28;20477;-54
2020/12/01 07:02:39;;;;;;;24.93;10.17;;;1.60;99.90;;;;;;4184752;28;20814;-55
2020/12/01 07:04:41;;;;;;;26.40;10.63;;;1.70;99.90;;;;;;4184491;28;22223;-54
2020/12/01 07:06:46;;;;;;;24.87;10.17;;;1.70;99.90;;;;;;4184143;28;20469;-54
2020/12/01 07:08:48;;;;;;;25.30;10.33;;;1.60;99.90;;;;;;4184555;28;20473;-55
2020/12/01 07:11:01;;;;;;;26.63;10.63;;;1.70;99.90;;;;;;4183951;28;20473;-57
2020/12/01 07:13:11;;;;;;;23.67;9.90;;;1.70;99.90;;;;;;4184045;28;20469;-55
2020/12/01 07:15:15;;;;;;;29.73;11.47;;;1.70;99.90;;;;;;4183432;28;20584;-54
2020/12/01 07:17:44;;;;;;;27.03;10.30;;;1.60;99.90;;;;;;4183960;28;20944;-54
2020/12/01 07:19:53;;;;;;;24.90;9.57;;;1.60;99.90;;;;;;4182948;28;20472;-55
2020/12/01 07:22:04;;;;;;;27.13;10.87;;;1.60;99.90;;;;;;4184434;28;20564;-55
2020/12/01 07:24:19;;;;;;;27.47;11.17;;;1.60;99.90;;;;;;4177105;28;20501;-54
2020/12/01 07:26:33;;;;;;;22.47;9.87;;;1.60;99.90;;;;;;4183307;28;20483;-53
2020/12/01 07:28:39;;;;;;;25.93;10.37;;;1.70;99.90;;;;;;4182769;28;20466;-53
2020/12/01 07:30:55;;;;;;;25.30;10.70;;;1.70;99.90;;;;;;4182726;28;21124;-54
2020/12/01 07:33:05;;;;;;;27.07;10.43;;;1.70;99.90;;;;;;4183031;28;20493;-54
2020/12/01 07:35:11;;;;;;;24.43;10.17;;;1.70;99.90;;;;;;4182456;28;20935;-54
2020/12/01 07:37:38;;;;;;;27.67;10.37;;;1.60;99.90;;;;;;4181885;28;20498;-55
2020/12/01 07:39:53;;;;;;;25.97;9.73;;;1.60;99.90;;;;;;4176014;28;20456;-54
2020/12/01 07:41:57;;;;;;;24.97;9.23;;;1.70;99.90;;;;;;4182815;28;20475;-54
2020/12/01 07:44:00;;;;;;;26.40;10.37;;;1.70;99.90;;;;;;4182875;28;20986;-54
2020/12/01 07:46:03;;;;;;;25.00;10.10;;;1.70;99.90;;;;;;4182708;28;20546;-54
2020/12/01 07:48:05;;;;;;;25.00;9.70;;;1.70;99.90;;;;;;4183304;28;20465;-54
2020/12/01 07:50:14;;;;;;;27.13;10.43;;;1.70;99.90;;;;;;4183234;28;21137;-54
2020/12/01 07:52:23;;;;;;;27.83;10.33;;;1.70;99.90;;;;;;4182552;28;20461;-54
2020/12/01 07:54:26;;;;;;;29.67;11.03;;;1.80;99.90;;;;;;4183105;28;20479;-54
2020/12/01 07:56:29;;;;;;;28.60;11.68;;;1.80;99.90;;;;;;4182514;28;20454;-54
2020/12/01 07:58:31;;;;;;;29.57;11.30;;;1.80;99.90;;;;;;4183109;28;20219;-54
2020/12/01 08:00:34;;;;;;;31.17;13.60;;;1.80;99.90;;;;;;4180975;28;20450;-54
2020/12/01 08:02:35;;;;;;;31.58;13.30;;;1.90;99.90;;;;;;4180417;28;20482;-54
2020/12/01 08:04:36;;;;;;;25.90;11.07;;;1.90;99.90;;;;;;4181181;28;20232;-54
2020/12/01 08:06:38;;;;;;;27.77;11.33;;;1.90;99.90;;;;;;4181963;28;20488;-54
2020/12/01 08:08:42;;;;;;;30.47;11.50;;;2.00;99.90;;;;;;4180596;28;20470;-53
2020/12/01 08:10:45;;;;;;;29.73;11.30;;;2.00;99.90;;;;;;4181249;28;20491;-54
2020/12/01 08:12:49;;;;;;;31.97;12.67;;;1.90;99.90;;;;;;4182714;28;20970;-54
2020/12/01 08:14:53;;;;;;;34.20;11.70;;;1.90;99.90;;;;;;4182214;28;20566;-53
2020/12/01 08:17:03;;;;;;;32.40;12.50;;;1.90;99.90;;;;;;4182352;28;20482;-54
2020/12/01 08:19:05;;;;;;;30.40;10.87;;;2.00;99.90;;;;;;4182190;28;20203;-54
2020/12/01 08:21:07;;;;;;;37.83;15.30;;;1.90;99.90;;;;;;4181347;28;21031;-54
2020/12/01 08:23:13;;;;;;;34.93;12.60;;;2.00;99.90;;;;;;4181849;28;20213;-54
2020/12/01 08:25:20;;;;;;;28.87;10.73;;;2.00;99.90;;;;;;4181844;28;20953;-54
2020/12/01 08:27:24;;;;;;;29.57;11.60;;;2.00;99.90;;;;;;4181981;28;20473;-53
2020/12/01 08:29:32;;;;;;;29.07;11.37;;;2.10;99.90;;;;;;4181781;28;20482;-54
2020/12/01 08:31:45;;;;;;;36.97;11.13;;;2.10;99.90;;;;;;4180671;28;20784;-54
2020/12/01 08:34:02;;;;;;;27.90;11.33;;;2.10;99.90;;;;;;4180752;28;20553;-53
2020/12/01 08:36:13;;;;;;;27.20;11.00;;;2.20;99.90;;;;;;4181513;28;20478;-53
2020/12/01 08:38:20;;;;;;;23.77;9.90;;;2.30;99.90;;;;;;4180815;28;22379;-54
2020/12/01 08:40:32;;;;;;;24.93;9.73;;;2.30;99.90;;;;;;4181519;28;21213;-53
2020/12/01 08:42:54;;;;;;;30.07;11.03;;;2.30;99.90;;;;;;4182296;28;20765;-53
2020/12/01 08:45:21;;;;;;;30.02;11.05;;;2.40;99.90;;;;;;4181068;28;20483;-54
2020/12/01 08:47:24;;;;;;;31.80;12.65;;;2.50;99.90;;;;;;4181008;28;20849;-54
2020/12/01 08:51:58;;;;;;;28.83;12.63;;;2.60;99.90;;;;;;4213367;27;20551;-55
2020/12/01 08:54:10;;;;;;;25.90;10.17;;;2.80;99.90;;;;;;4203433;28;20212;-55
2020/12/01 08:56:23;;;;;;;26.30;10.03;;;2.80;99.90;;;;;;4202035;28;20488;-53
2020/12/01 08:58:36;;;;;;;25.20;9.80;;;2.80;99.90;;;;;;4201119;28;20557;-55
2020/12/01 09:00:37;;;;;;;22.23;9.47;;;2.80;99.90;;;;;;4204178;28;20466;-54
2020/12/01 09:02:41;;;;;;;20.93;8.63;;;2.80;99.90;;;;;;4204348;28;20491;-56
2020/12/01 09:04:42;;;;;;;23.10;9.80;;;2.90;99.90;;;;;;4202290;28;20452;-55
2020/12/01 09:06:44;;;;;;;25.27;9.70;;;2.90;99.90;;;;;;4204540;28;20323;-54
2020/12/01 09:08:55;;;;;;;24.83;9.50;;;2.90;99.90;;;;;;4202534;28;20470;-54
2020/12/01 09:11:20;;;;;;;20.30;8.00;;;3.00;99.90;;;;;;4203226;28;20512;-54
2020/12/01 09:13:27;;;;;;;20.97;8.17;;;3.00;99.90;;;;;;4204655;28;20484;-55
2020/12/01 09:15:40;;;;;;;20.85;8.98;;;3.00;99.90;;;;;;4203800;28;20434;-55
2020/12/01 09:17:55;;;;;;;20.73;8.60;;;3.00;99.90;;;;;;4205239;28;20577;-57
2020/12/01 09:22:35;;;;;;;21.97;8.53;;;3.00;99.90;;;;;;4203433;28;20533;-53
2020/12/01 09:24:38;;;;;;;19.87;8.33;;;3.00;99.90;;;;;;4203149;28;21170;-53
2020/12/01 09:26:39;;;;;;;20.73;8.33;;;3.00;99.90;;;;;;4202062;28;20477;-53
2020/12/01 09:28:47;;;;;;;21.23;9.70;;;3.00;99.90;;;;;;4204514;28;20469;-53
2020/12/01 09:30:49;;;;;;;22.43;9.50;;;3.00;99.90;;;;;;4203154;28;22465;-54
2020/12/01 09:32:51;;;;;;;31.17;10.50;;;2.90;99.90;;;;;;4202004;28;20497;-55
2020/12/01 09:34:52;;;;;;;29.03;11.60;;;2.90;99.90;;;;;;4202210;28;20472;-53
2020/12/01 09:36:57;;;;;;;32.30;11.20;;;2.90;99.90;;;;;;4200670;28;20825;-53
2020/12/01 09:38:59;;;;;;;33.17;11.43;;;2.80;99.90;;;;;;4204102;28;20501;-53
2020/12/01 09:41:01;;;;;;;32.90;12.37;;;2.70;99.90;;;;;;4202646;28;20465;-53
2020/12/01 09:43:10;;;;;;;32.63;11.87;;;2.70;99.90;;;;;;4203123;28;20505;-53
2020/12/01 09:45:18;;;;;;;33.40;11.87;;;2.70;99.90;;;;;;4204213;28;20471;-53
2020/12/01 09:47:25;;;;;;;31.97;12.30;;;2.70;99.90;;;;;;4201889;28;20935;-53
2020/12/01 09:49:26;;;;;;;41.13;13.97;;;2.70;99.90;;;;;;4202699;28;20473;-53
2020/12/01 09:51:27;;;;;;;39.70;14.43;;;2.70;99.90;;;;;;4200867;28;20512;-53
2020/12/01 09:53:41;;;;;;;36.13;12.93;;;2.60;99.90;;;;;;4202828;28;20553;-53
2020/12/01 09:58:18;;;;;;;29.63;12.00;;;2.60;99.90;;;;;;4183706;28;21048;-53
2020/12/01 10:00:54;;;;;;;31.77;12.00;;;2.60;99.90;;;;;;4203491;28;20943;-53
2020/12/01 10:07:49;;;;;;;30.90;11.10;;;2.70;99.90;;;;;;4190995;28;20460;-53
2020/12/01 10:10:02;;;;;;;31.43;11.50;;;2.70;99.90;;;;;;4193011;28;20761;-53
2020/12/01 10:12:30;;;;;;;35.70;13.27;;;2.70;99.90;;;;;;4192063;28;20466;-53
2020/12/01 10:17:32;;;;;;;36.80;11.87;;;2.70;99.90;;;;;;4191367;28;20542;-53
2020/12/01 10:20:22;;;;;;;35.77;11.97;;;2.70;99.90;;;;;;4191319;28;20467;-53
2020/12/01 10:36:29;;;;;;;30.67;10.40;;;3.00;99.90;;;;;;4188650;28;20450;-54
2020/12/01 10:38:31;;;;;;;30.80;10.73;;;2.90;99.90;;;;;;4193156;28;22308;-54
2020/12/01 10:40:32;;;;;;;37.57;11.73;;;3.00;99.90;;;;;;4189968;28;20557;-53
2020/12/01 10:42:34;;;;;;;29.87;10.63;;;2.90;99.90;;;;;;4191125;28;20463;-53
2020/12/01 10:44:35;;;;;;;28.10;10.13;;;3.00;99.90;;;;;;4190945;28;20476;-53
2020/12/01 10:46:37;;;;;;;31.17;11.17;;;3.00;99.90;;;;;;4188879;28;20470;-54
2020/12/01 10:48:40;;;;;;;32.43;10.60;;;3.00;99.90;;;;;;4191205;28;20485;-54
2020/12/01 10:50:41;;;;;;;29.80;11.75;;;3.00;99.90;;;;;;4189228;28;20458;-58
2020/12/01 10:52:43;;;;;;;27.80;10.37;;;3.10;99.90;;;;;;4189398;28;20212;-53
2020/12/01 10:54:44;;;;;;;27.63;10.70;;;3.20;99.90;;;;;;4191616;28;20925;-54
2020/12/01 10:56:47;;;;;;;24.97;9.77;;;3.30;99.90;;;;;;4189758;28;22209;-54
2020/12/01 10:58:48;;;;;;;28.60;9.90;;;3.30;99.90;;;;;;4190038;28;20472;-53
2020/12/01 11:00:49;;;;;;;26.83;10.27;;;3.30;99.90;;;;;;4189867;28;20472;-56
2020/12/01 11:02:51;;;;;;;25.33;9.97;;;3.30;99.90;;;;;;4188903;28;20531;-53
2020/12/01 11:04:54;;;;;;;23.07;9.33;;;3.30;99.90;;;;;;4189635;28;20506;-53
2020/12/01 11:06:55;;;;;;;25.77;10.07;;;3.30;99.90;;;;;;4190394;28;20602;-53
2020/12/01 11:08:56;;;;;;;33.17;11.33;;;3.30;99.90;;;;;;4189187;28;21393;-54
2020/12/01 11:10:58;;;;;;;33.53;12.23;;;3.30;99.90;;;;;;4190414;28;20491;-53
2020/12/01 11:12:59;;;;;;;37.87;12.80;;;3.30;99.90;;;;;;4189801;28;20471;-54
2020/12/01 11:15:01;;;;;;;38.70;13.00;;;3.30;99.90;;;;;;4189985;28;20948;-53
2020/12/01 11:17:02;;;;;;;36.08;13.75;;;3.30;99.90;;;;;;4189468;28;20564;-53
2020/12/01 11:19:04;;;;;;;36.42;15.85;;;3.40;99.90;;;;;;4186632;28;20459;-53
2020/12/01 11:21:07;;;;;;;30.87;13.07;;;3.50;99.90;;;;;;4188721;28;20217;-53